createdAt,value
2022-08-23T00:02:22.879Z,4.20
2022-08-23T00:05:07.750Z,4.47
2022-08-23T00:07:38.633Z,4.80
2022-08-23T00:10:06.602Z,4.53
2022-08-23T00:12:33.743Z,4.27
2022-08-23T00:15:00.907Z,4.37
2022-08-23T00:17:34.524Z,4.60
2022-08-23T00:20:02.267Z,4.90
2022-08-23T00:22:29.420Z,5.97
2022-08-23T00:24:57.929Z,5.03
2022-08-23T00:27:25.098Z,5.77
2022-08-23T00:29:53.516Z,5.00
2022-08-23T00:32:22.868Z,6.00
2022-08-23T00:34:50.287Z,5.30
2022-08-23T00:37:18.145Z,6.00
2022-08-23T00:39:45.585Z,5.33
2022-08-23T00:42:15.830Z,4.80
2022-08-23T00:44:43.102Z,5.97
2022-08-23T00:47:10.764Z,5.63
2022-08-23T00:49:39.277Z,5.63
2022-08-23T00:52:08.194Z,5.10
2022-08-23T00:54:37.020Z,5.23
2022-08-23T00:57:08.562Z,4.83
2022-08-23T00:59:37.286Z,5.40
2022-08-23T01:02:05.223Z,5.37
2022-08-23T01:04:33.400Z,5.10
2022-08-23T01:07:03.554Z,5.07
2022-08-23T01:09:30.780Z,5.07
2022-08-23T01:12:01.386Z,5.90
2022-08-23T01:14:32.556Z,5.60
2022-08-23T01:17:02.948Z,6.00
2022-08-23T01:19:31.904Z,5.47
2022-08-23T01:22:01.998Z,5.90
2022-08-23T01:25:07.689Z,5.93
2022-08-23T01:27:18.023Z,5.40
2022-08-23T01:29:45.165Z,5.10
2022-08-23T01:32:13.046Z,5.60
2022-08-23T01:34:45.953Z,5.17
2022-08-23T01:37:20.216Z,5.80
2022-08-23T01:39:48.819Z,5.20
2022-08-23T01:42:16.031Z,5.60
2022-08-23T01:44:43.289Z,5.40
2022-08-23T01:47:10.653Z,5.40
2022-08-23T01:49:37.834Z,5.67
2022-08-23T01:52:05.016Z,5.30
2022-08-23T01:54:32.326Z,6.00
2022-08-23T01:57:00.974Z,5.80
2022-08-23T01:59:28.674Z,6.87
2022-08-23T02:01:56.141Z,5.50
2022-08-23T02:04:23.438Z,6.13
2022-08-23T02:06:50.603Z,5.87
2022-08-23T02:09:21.571Z,6.13
2022-08-23T02:11:49.184Z,5.20
2022-08-23T02:14:18.827Z,5.33
2022-08-23T02:17:03.801Z,5.60
2022-08-23T02:19:35.631Z,5.33
2022-08-23T02:22:04.037Z,5.40
2022-08-23T02:24:31.789Z,5.00
2022-08-23T02:27:00.813Z,5.37
2022-08-23T02:29:30.714Z,4.20
2022-08-23T02:32:01.871Z,4.53
2022-08-23T02:37:14.646Z,4.57
2022-08-23T02:39:42.153Z,5.00
2022-08-23T02:42:11.539Z,4.90
2022-08-23T02:44:41.666Z,5.00
2022-08-23T02:47:09.123Z,4.80
2022-08-23T02:49:38.249Z,5.17
2022-08-23T02:52:06.085Z,5.00
2022-08-23T02:54:33.588Z,4.77
2022-08-23T02:57:00.878Z,5.07
2022-08-23T02:59:28.174Z,5.20
2022-08-23T03:01:56.808Z,4.90
2022-08-23T03:04:32.246Z,4.67
2022-08-23T03:06:59.476Z,4.60
2022-08-23T03:09:27.603Z,4.90
2022-08-23T03:11:54.894Z,4.90
2022-08-23T03:14:22.479Z,4.80
2022-08-23T03:16:49.936Z,5.47
2022-08-23T03:19:18.794Z,5.27
2022-08-23T03:21:46.105Z,5.93
2022-08-23T03:24:15.239Z,5.20
2022-08-23T03:26:43.316Z,5.13
2022-08-23T03:29:10.734Z,5.63
2022-08-23T03:31:55.405Z,4.63
2022-08-23T03:34:24.010Z,5.70
2022-08-23T03:36:51.255Z,5.20
2022-08-23T03:39:18.683Z,6.23
2022-08-23T03:41:46.249Z,5.67
2022-08-23T03:44:13.571Z,5.67
2022-08-23T03:46:43.294Z,4.87
2022-08-23T03:49:10.634Z,5.33
2022-08-23T03:51:46.822Z,5.13
2022-08-23T03:54:14.085Z,5.97
2022-08-23T03:56:52.184Z,7.13
2022-08-23T03:59:19.549Z,6.30
2022-08-23T04:01:46.805Z,6.37
2022-08-23T04:04:14.101Z,5.80
2022-08-23T04:06:56.459Z,7.40
2022-08-23T04:09:23.836Z,7.00
2022-08-23T04:11:50.984Z,6.93
2022-08-23T04:14:18.180Z,6.67
2022-08-23T04:16:45.355Z,7.40
2022-08-23T04:19:14.177Z,7.03
2022-08-23T04:21:51.921Z,6.40
2022-08-23T04:24:20.938Z,7.37
2022-08-23T04:26:49.653Z,7.40
2022-08-23T04:29:33.503Z,7.30
2022-08-23T04:32:01.928Z,6.73
2022-08-23T04:34:29.847Z,7.23
2022-08-23T04:36:57.930Z,7.83
2022-08-23T04:39:26.413Z,7.77
2022-08-23T04:41:54.311Z,7.10
2022-08-23T04:44:21.783Z,7.10
2022-08-23T04:46:50.503Z,8.27
2022-08-23T04:49:18.717Z,9.87
2022-08-23T04:51:53.880Z,9.23
2022-08-23T04:54:22.596Z,10.00
2022-08-23T04:57:18.701Z,9.87
2022-08-23T04:59:48.202Z,10.23
2022-08-23T05:02:16.787Z,8.90
2022-08-23T05:04:45.594Z,8.07
2022-08-23T05:07:13.416Z,9.73
2022-08-23T05:09:40.597Z,9.07
2022-08-23T05:12:08.470Z,9.00
2022-08-23T05:14:37.023Z,9.63
2022-08-23T05:17:04.294Z,8.80
2022-08-23T05:19:33.205Z,9.00
2022-08-23T05:22:01.718Z,8.63
2022-08-23T05:24:48.850Z,8.43
2022-08-23T05:27:15.989Z,8.00
2022-08-23T05:29:44.505Z,7.70
2022-08-23T05:32:11.972Z,8.00
2022-08-23T05:34:40.085Z,8.00
2022-08-23T05:37:10.701Z,8.33
2022-08-23T05:39:40.555Z,8.53
2022-08-23T05:42:11.253Z,8.10
2022-08-23T05:44:38.784Z,6.90
2022-08-23T05:47:11.551Z,7.77
2022-08-23T05:49:59.443Z,7.30
2022-08-23T05:52:29.978Z,7.43
2022-08-23T05:54:57.193Z,7.83
2022-08-23T05:57:53.620Z,6.70
2022-08-23T06:00:20.943Z,6.97
2022-08-23T06:02:53.293Z,7.43
2022-08-23T06:05:20.707Z,6.80
2022-08-23T06:07:49.472Z,6.80
2022-08-23T06:10:18.047Z,7.40
2022-08-23T06:12:50.442Z,7.50
2022-08-23T06:15:17.800Z,6.53
2022-08-23T06:17:45.081Z,6.83
2022-08-23T06:20:14.781Z,7.30
2022-08-23T06:22:57.604Z,6.97
2022-08-23T06:25:25.201Z,7.23
2022-08-23T06:27:56.631Z,7.23
2022-08-23T06:30:23.869Z,7.00
2022-08-23T06:33:02.796Z,6.93
2022-08-23T06:35:39.090Z,6.53
2022-08-23T06:38:12.917Z,7.90
2022-08-23T06:40:48.934Z,7.57
2022-08-23T06:43:42.345Z,6.67
2022-08-23T06:46:20.299Z,5.97
2022-08-23T06:48:51.230Z,6.57
2022-08-23T06:51:22.176Z,5.33
2022-08-23T06:54:26.552Z,5.40
2022-08-23T06:56:54.213Z,5.00
2022-08-23T06:59:29.385Z,5.17
2022-08-23T07:02:14.364Z,4.77
2022-08-23T07:05:00.308Z,4.80
2022-08-23T07:07:44.303Z,5.03
2022-08-23T07:10:13.512Z,5.20
2022-08-23T07:12:40.744Z,5.70
2022-08-23T07:15:08.449Z,4.93
2022-08-23T07:17:35.629Z,4.67
2022-08-23T07:20:03.563Z,5.33
2022-08-23T07:22:32.457Z,5.97
2022-08-23T07:25:01.541Z,5.27
2022-08-23T07:27:29.661Z,5.60
2022-08-23T07:30:01.774Z,6.10
2022-08-23T07:32:30.259Z,4.77
2022-08-23T07:34:59.005Z,4.70
2022-08-23T07:37:27.088Z,5.63
2022-08-23T07:39:58.434Z,5.27
2022-08-23T07:42:27.515Z,5.60
2022-08-23T07:44:56.009Z,5.20
2022-08-23T07:47:26.079Z,5.40
2022-08-23T07:49:55.752Z,5.87
2022-08-23T07:52:23.583Z,6.50
2022-08-23T07:54:50.955Z,5.30
2022-08-23T07:57:42.367Z,5.47
2022-08-23T08:00:26.013Z,5.93
2022-08-23T08:03:03.149Z,5.10
2022-08-23T08:05:43.465Z,5.00
2022-08-23T08:08:10.920Z,5.25
2022-08-23T08:10:38.858Z,5.57
2022-08-23T08:13:07.562Z,4.50
2022-08-23T08:15:35.330Z,4.43
2022-08-23T08:18:07.699Z,4.78
2022-08-23T08:20:54.841Z,5.18
2022-08-23T08:23:47.606Z,5.22
2022-08-23T08:26:49.892Z,5.03
2022-08-23T08:29:19.193Z,4.40
2022-08-23T08:31:46.415Z,4.43
2022-08-23T08:34:14.161Z,4.57
2022-08-23T08:36:43.040Z,4.57
2022-08-23T08:39:17.209Z,4.32
2022-08-23T08:41:47.600Z,4.32
2022-08-23T08:44:21.323Z,4.80
2022-08-23T08:46:53.228Z,4.15
2022-08-23T08:49:26.494Z,3.72
2022-08-23T08:51:57.246Z,4.10
2022-08-23T08:54:26.720Z,4.03
2022-08-23T08:56:56.654Z,4.57
2022-08-23T08:59:27.247Z,4.70
2022-08-23T09:01:55.801Z,4.60
2022-08-23T09:04:30.657Z,3.88
2022-08-23T09:07:02.740Z,4.00
2022-08-23T09:09:39.535Z,4.63
2022-08-23T09:12:12.763Z,4.57
2022-08-23T09:14:47.900Z,4.20
2022-08-23T09:17:20.831Z,4.32
2022-08-23T09:19:50.571Z,4.38
2022-08-23T09:22:21.543Z,3.72
2022-08-23T09:24:48.908Z,4.45
2022-08-23T09:27:23.825Z,4.45
2022-08-23T09:29:55.863Z,4.32
2022-08-23T09:32:28.648Z,4.45
2022-08-23T09:35:06.280Z,4.15
2022-08-23T09:37:46.219Z,4.35
2022-08-23T09:40:16.429Z,4.10
2022-08-23T09:42:44.671Z,3.53
2022-08-23T09:45:26.567Z,4.18
2022-08-23T09:47:55.256Z,3.97
2022-08-23T09:50:25.896Z,4.32
2022-08-23T09:52:56.682Z,4.30
2022-08-23T09:55:28.130Z,3.75
2022-08-23T09:57:55.335Z,4.10
2022-08-23T10:00:25.462Z,4.53
2022-08-23T10:02:54.980Z,4.07
2022-08-23T10:05:36.438Z,3.97
2022-08-23T10:08:06.689Z,3.65
2022-08-23T10:10:40.808Z,3.67
2022-08-23T10:13:07.970Z,3.25
2022-08-23T10:15:44.398Z,3.67
2022-08-23T10:18:17.034Z,3.45
2022-08-23T10:20:51.001Z,3.25
2022-08-23T10:23:24.310Z,3.65
2022-08-23T10:25:55.356Z,4.00
2022-08-23T10:28:29.056Z,3.78
2022-08-23T10:31:00.669Z,4.25
2022-08-23T10:33:38.001Z,3.58
2022-08-23T10:36:11.439Z,4.07
2022-08-23T10:38:42.714Z,4.22
2022-08-23T10:41:43.855Z,3.78
2022-08-23T10:44:22.703Z,3.60
2022-08-23T10:46:53.944Z,4.57
2022-08-23T10:49:22.852Z,3.70
2022-08-23T10:51:51.901Z,3.88
2022-08-23T10:54:24.597Z,3.67
2022-08-23T10:56:54.978Z,3.42
2022-08-23T10:59:24.016Z,3.60
2022-08-23T11:01:56.043Z,3.38
2022-08-23T11:04:27.937Z,3.88
2022-08-23T11:07:15.015Z,3.85
2022-08-23T11:09:51.041Z,3.55
2022-08-23T11:12:29.526Z,3.00
2022-08-23T11:15:14.624Z,3.63
2022-08-23T11:17:57.024Z,3.53
2022-08-23T11:20:44.123Z,3.10
2022-08-23T11:23:14.371Z,3.05
2022-08-23T11:25:43.005Z,3.25
2022-08-23T11:28:31.785Z,2.47
2022-08-23T11:31:01.455Z,3.65
2022-08-23T11:33:35.317Z,3.50
2022-08-23T11:36:16.068Z,5.88
2022-08-23T11:39:03.019Z,3.38
2022-08-23T11:41:33.773Z,2.97
2022-08-23T11:44:18.009Z,3.50
2022-08-23T11:46:57.732Z,3.63
2022-08-23T11:49:36.054Z,3.15
2022-08-23T11:52:10.581Z,3.20
2022-08-23T11:54:41.725Z,3.70
2022-08-23T11:57:29.071Z,3.50
2022-08-23T12:00:02.923Z,3.97
2022-08-23T12:02:48.090Z,2.85
2022-08-23T12:05:21.978Z,3.00
2022-08-23T12:07:53.737Z,3.30
2022-08-23T12:10:25.041Z,2.95
2022-08-23T12:13:07.078Z,3.13
2022-08-23T12:15:49.177Z,2.90
2022-08-23T12:18:23.890Z,3.75
2022-08-23T12:20:57.880Z,2.78
2022-08-23T12:23:25.047Z,2.80
2022-08-23T12:25:59.454Z,3.00
2022-08-23T12:28:39.368Z,2.97
2022-08-23T12:31:13.433Z,3.25
2022-08-23T12:33:46.737Z,3.42
2022-08-23T12:36:18.355Z,3.20
2022-08-23T12:38:50.731Z,3.67
2022-08-23T12:41:19.493Z,3.15
2022-08-23T12:44:01.090Z,2.85
2022-08-23T12:46:32.442Z,2.80
2022-08-23T12:49:01.102Z,2.92
2022-08-23T12:51:28.293Z,2.22
2022-08-23T12:53:55.451Z,2.88
2022-08-23T12:56:31.561Z,2.60
2022-08-23T12:59:00.849Z,3.20
2022-08-23T13:01:30.041Z,3.00
2022-08-23T13:03:59.952Z,2.85
2022-08-23T13:06:31.916Z,2.67
2022-08-23T13:09:03.371Z,2.90
2022-08-23T13:11:35.282Z,3.08
2022-08-23T13:14:22.161Z,3.30
2022-08-23T13:16:52.128Z,3.30
2022-08-23T13:19:24.107Z,2.55
2022-08-23T13:22:06.122Z,3.38
2022-08-23T13:24:37.859Z,2.92
2022-08-23T13:27:13.037Z,2.33
2022-08-23T13:29:49.053Z,3.17
2022-08-23T13:32:25.237Z,2.72
2022-08-23T13:34:54.392Z,3.58
2022-08-23T13:37:23.648Z,2.25
2022-08-23T13:39:54.143Z,2.78
2022-08-23T13:42:30.277Z,3.20
2022-08-23T13:44:57.439Z,3.00
2022-08-23T13:47:26.318Z,3.08
2022-08-23T13:49:53.869Z,2.92
2022-08-23T13:55:10.244Z,2.72
2022-08-23T13:57:38.480Z,2.95
2022-08-23T14:00:06.207Z,3.03
2022-08-23T14:02:37.082Z,3.58
2022-08-23T14:05:04.558Z,2.90
2022-08-23T14:07:31.798Z,3.22
2022-08-23T14:09:58.950Z,3.28
2022-08-23T14:12:29.136Z,2.33
2022-08-23T14:14:57.653Z,2.97
2022-08-23T14:17:24.843Z,3.10
2022-08-23T14:20:32.323Z,2.80
2022-08-23T14:22:40.468Z,2.42
2022-08-23T14:25:08.368Z,2.58
2022-08-23T14:27:38.719Z,3.35
2022-08-23T14:30:06.399Z,2.55
2022-08-23T14:32:33.543Z,2.35
2022-08-23T14:35:00.751Z,2.83
2022-08-23T14:40:15.612Z,2.97
2022-08-23T14:42:44.612Z,4.20
2022-08-23T14:45:12.449Z,3.20
2022-08-23T14:47:40.013Z,2.70
2022-08-23T14:50:08.363Z,2.47
2022-08-23T14:52:36.271Z,2.28
2022-08-23T14:55:03.407Z,2.75
2022-08-23T14:57:30.513Z,2.70
2022-08-23T14:59:59.085Z,2.60
2022-08-23T15:02:27.005Z,2.40
2022-08-23T15:04:54.994Z,2.53
2022-08-23T15:07:22.697Z,2.53
2022-08-23T15:09:50.452Z,2.20
2022-08-23T15:15:08.790Z,2.17
2022-08-23T15:17:38.320Z,3.03
2022-08-23T15:20:06.230Z,3.25
2022-08-23T15:22:33.369Z,2.45
2022-08-23T15:25:11.463Z,3.08
2022-08-23T15:27:38.647Z,3.20
2022-08-23T15:30:07.865Z,2.78
2022-08-23T15:32:35.018Z,3.03
2022-08-23T15:35:04.970Z,2.35
2022-08-23T15:37:32.432Z,2.90
2022-08-23T15:39:59.884Z,3.03
2022-08-23T15:42:27.045Z,2.60
2022-08-23T15:44:54.246Z,3.03
2022-08-23T15:47:24.483Z,2.72
2022-08-23T15:49:51.711Z,2.75
2022-08-23T15:52:19.117Z,2.10
2022-08-23T15:54:47.027Z,2.27
2022-08-23T15:57:15.448Z,2.10
2022-08-23T15:59:42.606Z,2.37
2022-08-23T16:02:09.810Z,1.97
2022-08-23T16:04:38.320Z,2.10
2022-08-23T16:07:05.679Z,2.03
2022-08-23T16:09:34.270Z,3.23
2022-08-23T16:12:01.444Z,1.90
2022-08-23T16:14:28.604Z,2.00
2022-08-23T16:16:55.777Z,2.10
2022-08-23T16:19:23.044Z,2.30
2022-08-23T16:21:51.814Z,2.40
2022-08-23T16:24:18.987Z,2.03
2022-08-23T16:26:51.918Z,2.60
2022-08-23T16:29:20.152Z,2.27
2022-08-23T16:31:47.600Z,2.23
2022-08-23T16:34:16.314Z,1.83
2022-08-23T16:36:44.273Z,2.90
2022-08-23T16:39:14.099Z,2.13
2022-08-23T16:41:41.418Z,2.50
2022-08-23T16:44:08.627Z,2.20
2022-08-23T16:46:35.989Z,2.50
2022-08-23T16:49:03.328Z,2.20
2022-08-23T16:51:30.461Z,2.00
2022-08-23T16:54:02.251Z,1.90
2022-08-23T16:56:31.129Z,2.13
2022-08-23T16:58:58.376Z,1.60
2022-08-23T17:01:25.559Z,2.13
2022-08-23T17:03:52.762Z,2.07
2022-08-23T17:06:20.248Z,2.20
2022-08-23T17:08:47.388Z,2.50
2022-08-23T17:11:16.037Z,2.23
2022-08-23T17:13:44.520Z,2.00
2022-08-23T17:16:11.794Z,2.07
2022-08-23T17:18:39.239Z,2.00
2022-08-23T17:21:07.091Z,1.77
2022-08-23T17:23:37.708Z,1.80
2022-08-23T17:26:08.087Z,2.30
2022-08-23T17:28:35.431Z,2.20
2022-08-23T17:31:04.189Z,2.30
2022-08-23T17:33:31.342Z,1.63
2022-08-23T17:35:58.466Z,1.97
2022-08-23T17:38:25.646Z,1.47
2022-08-23T17:40:53.330Z,1.97
2022-08-23T17:43:20.448Z,1.83
2022-08-23T17:45:49.425Z,2.03
2022-08-23T17:48:18.749Z,2.00
2022-08-23T17:50:46.388Z,1.73
2022-08-23T17:53:14.065Z,2.23
2022-08-23T17:55:41.899Z,1.93
2022-08-23T17:58:10.165Z,1.70
2022-08-23T18:00:38.301Z,2.03
2022-08-23T18:03:05.734Z,1.90
2022-08-23T18:05:37.786Z,2.17
2022-08-23T18:08:05.182Z,1.93
2022-08-23T18:10:32.335Z,1.93
2022-08-23T18:12:59.568Z,2.17
2022-08-23T18:15:27.294Z,2.30
2022-08-23T18:17:58.058Z,2.20
2022-08-23T18:20:26.093Z,1.80
2022-08-23T18:22:54.797Z,1.87
2022-08-23T18:25:22.025Z,1.90
2022-08-23T18:27:49.182Z,2.17
2022-08-23T18:30:16.588Z,2.13
2022-08-23T18:32:43.748Z,2.10
2022-08-23T18:35:11.206Z,2.30
2022-08-23T18:37:38.335Z,1.87
2022-08-23T18:40:09.967Z,2.50
2022-08-23T18:42:37.486Z,2.07
2022-08-23T18:45:05.079Z,2.57
2022-08-23T18:47:32.272Z,2.10
2022-08-23T18:49:59.405Z,2.43
2022-08-23T18:52:26.848Z,2.60
2022-08-23T18:54:57.418Z,2.30
2022-08-23T18:57:25.993Z,2.30
2022-08-23T18:59:53.130Z,2.10
2022-08-23T19:02:20.344Z,2.10
2022-08-23T19:04:47.512Z,2.67
2022-08-23T19:07:14.683Z,2.80
2022-08-23T19:09:41.823Z,2.23
2022-08-23T19:12:09.182Z,2.70
2022-08-23T19:14:37.662Z,2.70
2022-08-23T19:17:05.088Z,3.10
2022-08-23T19:19:32.257Z,3.03
2022-08-23T19:21:59.401Z,2.77
2022-08-23T19:24:26.849Z,2.87
2022-08-23T19:26:54.047Z,2.33
2022-08-23T19:29:21.449Z,2.63
2022-08-23T19:31:50.318Z,2.30
2022-08-23T19:34:18.233Z,2.83
2022-08-23T19:36:48.312Z,2.77
2022-08-23T19:39:19.493Z,3.10
2022-08-23T19:41:46.720Z,2.70
2022-08-23T19:44:13.848Z,2.73
2022-08-23T19:46:44.876Z,3.03
2022-08-23T19:49:13.674Z,2.87
2022-08-23T19:51:42.384Z,3.20
2022-08-23T19:54:11.442Z,2.83
2022-08-23T19:56:39.826Z,3.13
2022-08-23T19:59:08.460Z,3.03
2022-08-23T20:01:35.674Z,3.40
2022-08-23T20:04:03.224Z,2.93
2022-08-23T20:06:33.618Z,3.10
2022-08-23T20:09:00.753Z,3.63
2022-08-23T20:11:27.969Z,3.03
2022-08-23T20:13:55.217Z,3.20
2022-08-23T20:16:22.581Z,3.03
2022-08-23T20:18:49.689Z,3.40
2022-08-23T20:21:17.948Z,3.60
2022-08-23T20:23:52.895Z,3.20
2022-08-23T20:26:20.059Z,3.50
2022-08-23T20:28:58.948Z,3.33
2022-08-23T20:31:28.278Z,3.20
2022-08-23T20:33:55.485Z,3.40
2022-08-23T20:36:22.623Z,3.53
2022-08-23T20:38:49.748Z,3.20
2022-08-23T20:41:18.226Z,3.20
2022-08-23T20:43:47.763Z,3.83
2022-08-23T20:46:14.920Z,3.30
2022-08-23T20:48:42.101Z,3.80
2022-08-23T20:51:09.260Z,3.33
2022-08-23T20:53:38.598Z,3.50
2022-08-23T20:56:06.393Z,2.90
2022-08-23T20:58:34.914Z,3.27
2022-08-23T21:01:02.377Z,3.60
2022-08-23T21:03:29.545Z,4.10
2022-08-23T21:06:02.069Z,3.60
2022-08-23T21:08:30.562Z,4.73
2022-08-23T21:10:58.227Z,3.83
2022-08-23T21:13:25.365Z,3.57
2022-08-23T21:15:53.889Z,3.30
2022-08-23T21:18:21.016Z,3.50
2022-08-23T21:20:48.144Z,3.60
2022-08-23T21:23:15.265Z,3.10
2022-08-23T21:25:42.406Z,3.57
2022-08-23T21:28:10.130Z,3.40
2022-08-23T21:30:37.742Z,3.50
2022-08-23T21:33:06.262Z,3.50
2022-08-23T21:35:33.529Z,3.80
2022-08-23T21:38:00.675Z,3.17
2022-08-23T21:40:28.154Z,3.77
2022-08-23T21:42:55.302Z,3.30
2022-08-23T21:45:22.575Z,3.13
2022-08-23T21:47:49.835Z,3.47
2022-08-23T21:50:18.508Z,3.67
2022-08-23T21:52:45.798Z,3.53
2022-08-23T21:55:23.749Z,3.37
2022-08-23T21:58:03.501Z,3.60
2022-08-23T22:00:30.641Z,3.70
2022-08-23T22:02:57.909Z,3.60
2022-08-23T22:05:26.858Z,3.77
2022-08-23T22:07:54.085Z,3.60
2022-08-23T22:10:21.443Z,3.77
2022-08-23T22:12:48.660Z,4.10
2022-08-23T22:15:16.223Z,4.43
2022-08-23T22:17:43.430Z,3.90
2022-08-23T22:20:11.328Z,3.83
2022-08-23T22:22:39.988Z,4.10
2022-08-23T22:25:07.844Z,4.00
2022-08-23T22:27:34.985Z,3.90
2022-08-23T22:30:02.145Z,3.50
2022-08-23T22:32:29.691Z,3.80
2022-08-23T22:34:56.847Z,3.80
2022-08-23T22:37:23.969Z,3.97
2022-08-23T22:39:55.450Z,3.67
2022-08-23T22:42:22.618Z,3.90
2022-08-23T22:44:49.912Z,3.77
2022-08-23T22:47:17.147Z,4.33
2022-08-23T22:49:44.294Z,3.77
2022-08-23T22:52:11.456Z,3.87
2022-08-23T22:54:38.621Z,3.50
2022-08-23T22:57:07.138Z,4.00
2022-08-23T22:59:34.261Z,4.27
2022-08-23T23:02:03.617Z,3.77
2022-08-23T23:04:31.471Z,4.40
2022-08-23T23:06:58.882Z,3.70
2022-08-23T23:09:26.088Z,4.53
2022-08-23T23:11:53.581Z,4.50
2022-08-23T23:14:22.593Z,4.33
2022-08-23T23:16:50.647Z,4.37
2022-08-23T23:19:18.555Z,4.40
2022-08-23T23:21:46.842Z,3.53
2022-08-23T23:24:15.601Z,4.17
2022-08-23T23:26:42.717Z,3.50
2022-08-23T23:29:14.994Z,4.70
2022-08-23T23:31:43.532Z,3.87
2022-08-23T23:34:10.696Z,4.60
2022-08-23T23:36:37.874Z,4.20
2022-08-23T23:39:06.300Z,4.43
2022-08-23T23:41:33.551Z,4.60
2022-08-23T23:44:00.835Z,4.80
2022-08-23T23:46:28.270Z,4.27
2022-08-23T23:48:56.802Z,4.43
2022-08-23T23:51:25.091Z,3.97
2022-08-23T23:53:52.474Z,3.50
2022-08-23T23:56:20.254Z,4.50
2022-08-23T23:58:47.641Z,3.93
